NFTF/TBU METAR and TAF weather

Enter ICAO airport designator
Station Type Date Time Source
NFTF METAR 2020/09/21 09:00 UTC NOAA

NFTF 210900Z 10008KT 9999 SCT016 BKN100 22/20 Q1018


Station Type Date Time Source
NFTF Decoded METAR 2020/09/21 09:00 UTC NOAA

Fua'Amotu, Tonga (NFTF) 21-14S 175-09W 41M
Sep 21, 2020 - 05:00 AM EDT / 2020.09.21 0900 UTC
Wind: from the E (100 degrees) at 9 MPH (8 KT):0
Visibility: greater than 7 mile(s):0
Sky conditions: mostly cloudy
Temperature: 71 F (22 C)
Dew Point: 68 F (20 C)
Relative Humidity: 88%
Pressure (altimeter): 30.06 in. Hg (1018 hPa)
ob: NFTF 210900Z 10008KT 9999 SCT016 BKN100 22/20 Q1018
cycle: 9

Station Type Date Time Source
NFTF TAF 2020/09/21 06:06 UTC NOAA

TAF NFTF 210504Z 2106/2206 10008KT 9999 FEW010 SCT017 PROB40
TEMPO 2121/2204 11015G25KT

Example: see airport list